Time;durP1;ratioP1;P1;durP2;ratioP2;P2;SDS_P1;SDS_P2;PMS_P1;PMS_P2;Temp;Humidity;BMP_temperature;BMP_pressure;BME280_temperature;BME280_humidity;BME280_pressure;Samples;Min_cycle;Max_cycle;Signal;HPM_P1;HPM_P2
2023/04/05 00:02:00;;;;;;;2.43;1.00;;;11.90;99.90;;;;;;4982201;28;20242;-93
2023/04/05 00:04:33;;;;;;;1.83;0.70;;;11.80;99.90;;;;;;4980085;28;20680;-94
2023/04/05 00:07:07;;;;;;;3.07;1.10;;;11.80;99.90;;;;;;4990798;28;20202;-95
2023/04/05 00:09:37;;;;;;;3.93;1.00;;;11.60;99.90;;;;;;4998616;28;20667;-93
2023/04/05 00:12:09;;;;;;;2.67;1.00;;;11.70;99.90;;;;;;4999742;28;20623;-94
2023/04/05 00:14:42;;;;;;;2.20;1.00;;;11.50;99.90;;;;;;4991184;28;20207;-94
2023/04/05 00:17:13;;;;;;;2.03;0.80;;;11.40;99.90;;;;;;4997022;28;20210;-92
2023/04/05 00:19:45;;;;;;;2.60;0.97;;;11.60;99.90;;;;;;4997873;28;20209;-93
2023/04/05 00:22:24;;;;;;;4.33;1.07;;;11.20;99.90;;;;;;4999356;28;20703;-93
2023/04/05 00:24:55;;;;;;;2.83;1.00;;;11.10;99.90;;;;;;4999567;28;20212;-93
2023/04/05 00:27:26;;;;;;;2.73;1.07;;;11.20;99.90;;;;;;4998060;28;20218;-94
2023/04/05 00:29:59;;;;;;;2.53;0.90;;;11.20;99.90;;;;;;4989654;28;20211;-94
2023/04/05 00:32:30;;;;;;;2.50;1.00;;;11.20;99.90;;;;;;4995702;28;20250;-94
2023/04/05 00:35:01;;;;;;;2.93;1.10;;;11.30;99.90;;;;;;5014623;28;20222;-93
2023/04/05 00:37:32;;;;;;;2.63;0.70;;;11.50;99.90;;;;;;5005316;28;20272;-95
2023/04/05 00:40:05;;;;;;;1.60;0.93;;;11.60;99.90;;;;;;5002056;28;20261;-96
2023/04/05 00:42:36;;;;;;;2.50;0.90;;;11.60;99.90;;;;;;5001229;28;20234;-96
2023/04/05 00:45:09;;;;;;;2.13;0.80;;;11.50;99.90;;;;;;5000354;28;20269;-94
2023/04/05 00:47:41;;;;;;;2.37;1.00;;;11.60;99.90;;;;;;4997667;28;20253;-94
2023/04/05 00:50:14;;;;;;;1.50;0.80;;;11.60;99.90;;;;;;5002292;28;20260;-96
2023/04/05 00:52:46;;;;;;;2.07;0.90;;;11.50;99.90;;;;;;5002860;28;20214;-95
2023/04/05 00:55:18;;;;;;;1.20;0.60;;;11.60;99.90;;;;;;5008516;28;20463;-94
2023/04/05 00:57:51;;;;;;;2.13;0.83;;;11.50;99.90;;;;;;5032172;28;20265;-95
2023/04/05 01:00:24;;;;;;;1.60;0.90;;;11.40;99.90;;;;;;5017725;28;20225;-95
2023/04/05 01:03:01;;;;;;;0.90;0.70;;;11.20;99.90;;;;;;5017216;28;20266;-95
2023/04/05 01:05:39;;;;;;;4.63;0.80;;;11.20;99.90;;;;;;5017830;28;20270;-93
2023/04/05 01:08:16;;;;;;;2.07;0.80;;;11.10;99.90;;;;;;5008770;28;20206;-94
2023/04/05 01:10:52;;;;;;;2.70;0.90;;;11.10;99.90;;;;;;5023330;28;20230;-94
2023/04/05 01:13:23;;;;;;;1.83;0.80;;;11.00;99.90;;;;;;5018508;28;20206;-95
2023/04/05 01:15:56;;;;;;;1.00;0.50;;;11.00;99.90;;;;;;5015863;28;20210;-91
2023/04/05 01:18:29;;;;;;;2.43;0.73;;;11.00;99.90;;;;;;5010653;28;20297;-94
2023/04/05 01:21:21;;;;;;;1.73;0.77;;;10.70;99.90;;;;;;5012599;28;20202;-93
2023/04/05 01:24:03;;;;;;;2.20;0.90;;;10.60;99.90;;;;;;5017423;28;20226;-92
2023/04/05 01:26:56;;;;;;;2.20;1.00;;;10.80;99.90;;;;;;5008496;28;20210;-88
2023/04/05 01:29:56;;;;;;;1.00;0.87;;;10.90;99.90;;;;;;5000183;28;20215;-90
2023/04/05 01:32:40;;;;;;;1.73;0.77;;;11.10;99.90;;;;;;4999316;28;20213;-89
2023/04/05 01:35:19;;;;;;;3.50;0.90;;;11.30;99.90;;;;;;5007958;28;20586;-89
2023/04/05 01:37:58;;;;;;;1.27;0.80;;;11.40;99.90;;;;;;5013190;28;20210;-91
2023/04/05 01:40:31;;;;;;;3.00;1.20;;;11.30;99.90;;;;;;5009850;28;20579;-90
2023/04/05 01:43:04;;;;;;;4.13;0.90;;;11.10;99.90;;;;;;4997164;28;20251;-90
2023/04/05 01:45:38;;;;;;;2.07;0.70;;;10.70;99.90;;;;;;4999100;28;20673;-92
2023/04/05 01:48:09;;;;;;;1.00;0.90;;;10.50;99.90;;;;;;4995868;28;20210;-91
2023/04/05 01:50:41;;;;;;;1.77;0.83;;;10.00;99.90;;;;;;4991948;28;20229;-91
2023/04/05 01:53:13;;;;;;;1.47;0.80;;;9.90;99.90;;;;;;4997430;28;20209;-92
2023/04/05 01:55:45;;;;;;;2.77;0.70;;;9.70;99.90;;;;;;4996671;28;20221;-91
2023/04/05 01:58:16;;;;;;;1.83;0.90;;;9.60;99.90;;;;;;4996467;28;20210;-92
2023/04/05 02:00:50;;;;;;;2.03;0.90;;;9.60;99.90;;;;;;4993462;28;20256;-92
2023/04/05 02:03:21;;;;;;;2.83;1.00;;;9.60;99.90;;;;;;4996065;28;20246;-92
2023/04/05 02:05:53;;;;;;;4.67;0.70;;;9.60;99.90;;;;;;4979119;28;20210;-90
2023/04/05 02:08:25;;;;;;;2.53;0.73;;;9.40;99.90;;;;;;4976762;28;20266;-92
2023/04/05 02:10:56;;;;;;;4.17;1.10;;;9.20;99.90;;;;;;4977131;28;20672;-92
2023/04/05 02:13:29;;;;;;;2.80;0.73;;;9.00;99.90;;;;;;4977924;28;20203;-92
2023/04/05 02:16:03;;;;;;;2.20;0.83;;;8.80;99.90;;;;;;4991955;28;20198;-93
2023/04/05 02:18:37;;;;;;;2.70;0.80;;;8.70;99.90;;;;;;4995523;28;20218;-92
2023/04/05 02:21:10;;;;;;;0.77;0.77;;;8.50;99.90;;;;;;4986937;28;20209;-91
2023/04/05 02:23:42;;;;;;;1.57;0.97;;;8.30;99.90;;;;;;4988064;28;20237;-89
2023/04/05 02:26:14;;;;;;;2.20;0.80;;;8.20;99.90;;;;;;4989913;28;20210;-90
2023/04/05 02:28:46;;;;;;;1.77;0.90;;;8.00;99.90;;;;;;4993870;28;20261;-90
2023/04/05 02:31:19;;;;;;;1.27;0.90;;;7.90;99.90;;;;;;4993468;28;20210;-90
2023/04/05 02:33:51;;;;;;;3.03;0.97;;;7.80;99.90;;;;;;4988687;28;20206;-90
2023/04/05 02:36:27;;;;;;;2.93;0.90;;;7.70;99.90;;;;;;4992513;28;20203;-89
2023/04/05 02:38:59;;;;;;;1.87;0.90;;;7.60;99.90;;;;;;4988478;28;20206;-89
2023/04/05 02:41:31;;;;;;;3.60;1.13;;;7.40;99.90;;;;;;4996874;28;20687;-90
2023/04/05 02:44:03;;;;;;;2.70;1.10;;;7.30;99.90;;;;;;4992173;28;20241;-90
2023/04/05 02:46:37;;;;;;;4.60;1.50;;;7.20;99.90;;;;;;4988980;28;20273;-91
2023/04/05 02:49:16;;;;;;;2.80;1.27;;;7.10;99.90;;;;;;4997410;28;20210;-91
2023/04/05 02:51:48;;;;;;;2.30;1.23;;;7.00;99.90;;;;;;4997830;28;20211;-90
2023/04/05 02:54:20;;;;;;;3.20;1.50;;;7.00;99.90;;;;;;4997720;28;20210;-91
2023/04/05 02:56:53;;;;;;;4.50;1.50;;;6.90;99.90;;;;;;4997378;28;20217;-92
2023/04/05 02:59:25;;;;;;;2.23;1.70;;;6.80;99.90;;;;;;4996219;28;20214;-92
2023/04/05 03:02:00;;;;;;;2.57;2.07;;;6.70;99.90;;;;;;4997493;28;20305;-91
2023/04/05 03:04:33;;;;;;;3.57;3.23;;;6.70;99.90;;;;;;4996177;28;20233;-91
2023/04/05 03:07:06;;;;;;;3.00;2.47;;;6.60;99.90;;;;;;4994120;28;20237;-92
2023/04/05 03:09:38;;;;;;;2.43;1.70;;;6.60;99.90;;;;;;5014811;28;20202;-92
2023/04/05 03:12:09;;;;;;;3.03;1.50;;;6.50;99.90;;;;;;5012442;28;20218;-91
2023/04/05 03:14:41;;;;;;;1.40;1.03;;;6.40;99.90;;;;;;4986081;28;20214;-91
2023/04/05 03:17:15;;;;;;;1.60;1.00;;;6.20;99.90;;;;;;4991369;28;20261;-91
2023/04/05 03:19:47;;;;;;;3.83;1.60;;;6.20;99.90;;;;;;4977065;28;20222;-92
2023/04/05 03:22:20;;;;;;;2.80;1.47;;;6.10;99.90;;;;;;4991658;28;20570;-91
2023/04/05 03:24:52;;;;;;;3.33;1.37;;;6.00;99.90;;;;;;4996140;28;20222;-91
2023/04/05 03:27:24;;;;;;;3.70;2.60;;;5.90;99.90;;;;;;4994496;28;20206;-90
2023/04/05 03:29:56;;;;;;;3.50;2.80;;;5.80;99.90;;;;;;4993935;28;20210;-89
2023/04/05 03:32:30;;;;;;;4.00;3.53;;;5.70;99.90;;;;;;4994359;28;20206;-88
2023/04/05 03:35:02;;;;;;;9.23;4.30;;;5.70;99.90;;;;;;4994476;28;20232;-89
2023/04/05 03:37:34;;;;;;;11.97;9.03;;;5.70;99.90;;;;;;4993949;28;20237;-90
2023/04/05 03:40:06;;;;;;;7.97;6.23;;;5.60;99.90;;;;;;4993371;28;20199;-90
2023/04/05 03:42:39;;;;;;;3.53;3.00;;;5.60;99.90;;;;;;4992314;28;20232;-90
2023/04/05 03:45:11;;;;;;;7.73;5.53;;;5.50;99.90;;;;;;4994295;28;20210;-89
2023/04/05 03:47:44;;;;;;;4.43;3.27;;;5.50;99.90;;;;;;4993949;28;20209;-89
2023/04/05 03:50:16;;;;;;;3.33;2.60;;;5.40;99.90;;;;;;4994498;28;20212;-89
2023/04/05 03:52:47;;;;;;;4.67;2.40;;;5.40;99.90;;;;;;4993501;28;20225;-89
2023/04/05 03:55:19;;;;;;;3.20;2.10;;;5.30;99.90;;;;;;4991387;28;20222;-91
2023/04/05 03:57:51;;;;;;;4.10;1.67;;;5.30;99.90;;;;;;4985583;28;20248;-91
2023/04/05 04:00:22;;;;;;;1.97;1.73;;;5.30;99.90;;;;;;4994840;28;20225;-91
2023/04/05 04:02:57;;;;;;;3.57;1.53;;;5.20;99.90;;;;;;4996568;28;20468;-90
2023/04/05 04:05:28;;;;;;;2.23;1.60;;;5.10;99.90;;;;;;4986365;28;20265;-92
2023/04/05 04:08:01;;;;;;;1.70;1.60;;;5.10;99.90;;;;;;4988718;28;20230;-91
2023/04/05 04:10:33;;;;;;;3.03;2.03;;;5.00;99.90;;;;;;4991132;28;20217;-91
2023/04/05 04:13:05;;;;;;;4.90;2.03;;;5.00;99.90;;;;;;4993576;28;20749;-90
2023/04/05 04:15:36;;;;;;;4.53;1.83;;;5.00;99.90;;;;;;4992623;28;20210;-90
2023/04/05 04:18:11;;;;;;;4.87;2.17;;;5.00;99.90;;;;;;4998598;28;20242;-91
2023/04/05 04:20:44;;;;;;;2.47;1.70;;;5.00;99.90;;;;;;5003895;28;20206;-91
2023/04/05 04:23:15;;;;;;;3.90;2.07;;;4.90;99.90;;;;;;4997091;28;20233;-91
2023/04/05 04:25:47;;;;;;;2.90;1.77;;;4.90;99.90;;;;;;5001083;28;20229;-90
2023/04/05 04:28:18;;;;;;;4.20;1.93;;;4.80;99.90;;;;;;4996657;28;20203;-90
2023/04/05 04:30:50;;;;;;;3.43;1.80;;;4.90;99.90;;;;;;4998184;28;20203;-90
2023/04/05 04:33:24;;;;;;;2.37;1.90;;;4.80;99.90;;;;;;4997896;28;20257;-90
2023/04/05 04:35:55;;;;;;;5.30;2.47;;;4.70;99.90;;;;;;4982587;28;20256;-88
2023/04/05 04:38:27;;;;;;;3.90;3.00;;;4.60;99.90;;;;;;4978027;28;20253;-90
2023/04/05 04:41:01;;;;;;;3.70;2.33;;;4.60;99.90;;;;;;4978383;28;20243;-89
2023/04/05 04:43:36;;;;;;;5.60;2.27;;;4.50;99.90;;;;;;4988419;28;20230;-89
2023/04/05 04:46:10;;;;;;;2.63;2.13;;;4.40;99.90;;;;;;4994925;28;20280;-90
2023/04/05 04:48:47;;;;;;;4.47;2.80;;;4.40;99.90;;;;;;4995419;28;20206;-89
2023/04/05 04:51:19;;;;;;;5.17;3.30;;;4.40;99.90;;;;;;4997470;28;20655;-88
2023/04/05 04:53:51;;;;;;;7.00;3.23;;;4.40;99.90;;;;;;4997717;28;20257;-89
2023/04/05 04:56:23;;;;;;;4.13;2.70;;;4.40;99.90;;;;;;4995278;28;20791;-90
2023/04/05 04:58:57;;;;;;;4.20;3.10;;;4.40;99.90;;;;;;4996357;28;20217;-91
2023/04/05 05:01:29;;;;;;;4.00;2.87;;;4.30;99.90;;;;;;4996186;28;20209;-90
2023/04/05 05:04:06;;;;;;;4.43;3.07;;;4.30;99.90;;;;;;4986306;28;20234;-91
2023/04/05 05:06:38;;;;;;;4.30;3.17;;;4.30;99.90;;;;;;4977871;28;20695;-91
2023/04/05 05:09:09;;;;;;;5.27;2.77;;;4.20;99.90;;;;;;4976400;28;20268;-90
2023/04/05 05:11:40;;;;;;;5.43;3.23;;;4.20;99.90;;;;;;4978197;28;20680;-90
2023/04/05 05:14:11;;;;;;;7.07;3.07;;;4.10;99.90;;;;;;4978978;28;20274;-91
2023/04/05 05:16:43;;;;;;;6.43;3.20;;;4.10;99.90;;;;;;4988176;28;20265;-91
2023/04/05 05:19:17;;;;;;;7.73;3.43;;;4.10;99.90;;;;;;5014209;28;20221;-91
2023/04/05 05:21:49;;;;;;;7.23;3.53;;;4.00;99.90;;;;;;5018084;28;20210;-89
2023/04/05 05:24:21;;;;;;;8.30;3.40;;;4.00;99.90;;;;;;5004031;28;20237;-90
2023/04/05 05:26:52;;;;;;;5.73;3.10;;;4.00;99.90;;;;;;4997747;28;20628;-90
2023/04/05 05:29:24;;;;;;;9.70;3.37;;;4.00;99.90;;;;;;4995363;28;20210;-91
2023/04/05 05:31:56;;;;;;;6.53;3.50;;;3.90;99.90;;;;;;4996676;28;20274;-91
2023/04/05 05:34:31;;;;;;;5.73;3.57;;;3.90;99.90;;;;;;4995759;28;20272;-91
2023/04/05 05:37:02;;;;;;;10.87;4.53;;;3.80;99.90;;;;;;4992695;28;20209;-88
2023/04/05 05:39:34;;;;;;;7.33;3.40;;;3.80;99.90;;;;;;4987072;28;20252;-89
2023/04/05 05:42:07;;;;;;;7.97;3.97;;;3.70;99.90;;;;;;4995445;28;20620;-88
2023/04/05 05:44:38;;;;;;;6.60;3.10;;;3.70;99.90;;;;;;4982365;28;20641;-90
2023/04/05 05:47:10;;;;;;;5.67;2.90;;;3.60;99.90;;;;;;4985692;28;20219;-89
2023/04/05 05:49:43;;;;;;;7.07;3.13;;;3.50;99.90;;;;;;4988194;28;20198;-90
2023/04/05 05:52:15;;;;;;;4.30;2.67;;;3.50;99.90;;;;;;4991466;28;20288;-89
2023/04/05 05:54:46;;;;;;;5.37;2.37;;;3.40;99.90;;;;;;4982279;28;20205;-89
2023/04/05 05:57:18;;;;;;;3.57;2.43;;;3.40;99.90;;;;;;4992541;28;20214;-93
2023/04/05 05:59:50;;;;;;;4.63;2.30;;;3.40;99.90;;;;;;4987624;28;20218;-89
2023/04/05 06:02:21;;;;;;;5.40;2.40;;;3.40;99.90;;;;;;4988790;28;20199;-90
2023/04/05 06:04:56;;;;;;;3.57;2.03;;;3.40;99.90;;;;;;4985667;28;20270;-90
2023/04/05 06:07:28;;;;;;;5.53;2.17;;;3.40;99.90;;;;;;4984664;28;20198;-90
2023/04/05 06:10:01;;;;;;;4.77;2.40;;;3.30;99.90;;;;;;4985852;28;20214;-91
2023/04/05 06:12:34;;;;;;;6.90;2.00;;;3.40;99.90;;;;;;4993960;28;20207;-90
2023/04/05 06:15:10;;;;;;;6.63;2.40;;;3.40;99.90;;;;;;4987131;28;20202;-90
2023/04/05 06:17:43;;;;;;;3.60;2.30;;;3.40;99.90;;;;;;4982101;28;20210;-93
2023/04/05 06:20:18;;;;;;;5.93;2.60;;;3.30;99.90;;;;;;4986230;28;20215;-90
2023/04/05 06:22:49;;;;;;;4.47;2.30;;;3.30;99.90;;;;;;4988402;28;20205;-90
2023/04/05 06:25:20;;;;;;;2.97;1.80;;;3.30;99.90;;;;;;4988834;28;20657;-90
2023/04/05 06:27:52;;;;;;;4.20;2.10;;;3.30;99.90;;;;;;4992808;28;20626;-91
2023/04/05 06:30:23;;;;;;;4.47;2.07;;;3.30;99.90;;;;;;4992989;28;20203;-91
2023/04/05 06:32:55;;;;;;;3.90;2.03;;;3.30;99.90;;;;;;4996054;28;20210;-91
2023/04/05 06:35:28;;;;;;;4.60;2.03;;;3.20;99.90;;;;;;4981959;28;20385;-91
2023/04/05 06:38:00;;;;;;;5.50;2.10;;;3.20;99.90;;;;;;4988145;28;20206;-91
2023/04/05 06:40:31;;;;;;;4.50;1.90;;;3.10;99.90;;;;;;4992119;28;20213;-89
2023/04/05 06:43:03;;;;;;;3.53;2.00;;;3.10;99.90;;;;;;4995511;28;20341;-88
2023/04/05 06:45:35;;;;;;;4.17;2.20;;;3.00;99.90;;;;;;4996575;28;20288;-89
2023/04/05 06:48:07;;;;;;;2.50;1.77;;;3.00;99.90;;;;;;4977882;28;20217;-90
2023/04/05 06:50:41;;;;;;;2.57;1.90;;;2.90;99.90;;;;;;4985572;28;20207;-90
2023/04/05 06:53:17;;;;;;;2.27;1.53;;;2.80;99.90;;;;;;4992905;28;20655;-90
2023/04/05 06:55:54;;;;;;;2.80;1.73;;;2.90;99.90;;;;;;4996048;28;20209;-90
2023/04/05 06:58:26;;;;;;;3.47;2.13;;;2.90;99.90;;;;;;4988452;28;20297;-89
2023/04/05 07:00:57;;;;;;;3.30;2.03;;;2.70;99.90;;;;;;4987809;28;20210;-89
2023/04/05 07:03:29;;;;;;;3.80;2.10;;;2.70;99.90;;;;;;4993457;28;20226;-89
2023/04/05 07:06:03;;;;;;;3.27;1.93;;;2.60;99.90;;;;;;5011993;28;20226;-90
2023/04/05 07:08:35;;;;;;;3.77;1.80;;;2.60;99.90;;;;;;5010945;28;20260;-91
2023/04/05 07:11:07;;;;;;;2.77;1.70;;;2.60;99.90;;;;;;5017416;28;20218;-91
2023/04/05 07:13:38;;;;;;;2.60;2.10;;;2.60;99.90;;;;;;5011389;28;20206;-91
2023/04/05 07:16:10;;;;;;;2.10;1.47;;;2.60;99.90;;;;;;5010485;28;20206;-91
2023/04/05 07:18:42;;;;;;;3.17;1.70;;;2.60;99.90;;;;;;5004620;28;20223;-92
2023/04/05 07:21:17;;;;;;;4.63;1.70;;;2.50;99.90;;;;;;4995489;28;20210;-90
2023/04/05 07:23:48;;;;;;;2.13;1.60;;;2.50;99.90;;;;;;4978376;28;20258;-90
2023/04/05 07:26:21;;;;;;;3.20;1.87;;;2.40;99.90;;;;;;4996382;28;20496;-90
2023/04/05 07:28:52;;;;;;;3.90;1.77;;;2.40;99.90;;;;;;5005343;28;20198;-88
2023/04/05 07:31:24;;;;;;;3.90;2.00;;;2.30;99.90;;;;;;5013468;28;20214;-89
2023/04/05 07:33:57;;;;;;;3.23;1.73;;;2.30;99.90;;;;;;5001162;28;20202;-90
2023/04/05 07:36:32;;;;;;;2.90;1.93;;;2.40;99.90;;;;;;5001149;28;20214;-91
2023/04/05 07:39:06;;;;;;;2.00;1.40;;;2.30;99.90;;;;;;5000262;28;20218;-91
2023/04/05 07:41:39;;;;;;;5.60;1.63;;;2.30;99.90;;;;;;4999158;28;20214;-91
2023/04/05 07:44:13;;;;;;;2.20;1.47;;;2.30;99.90;;;;;;4998718;28;20238;-90
2023/04/05 07:46:44;;;;;;;2.43;1.70;;;2.30;99.90;;;;;;4997144;28;20262;-90
2023/04/05 07:49:18;;;;;;;4.53;1.53;;;2.30;99.90;;;;;;4997881;28;20213;-89
2023/04/05 07:51:52;;;;;;;2.33;1.53;;;2.20;99.90;;;;;;5000161;28;20214;-91
2023/04/05 07:54:23;;;;;;;2.47;1.60;;;2.20;99.90;;;;;;4998681;28;20206;-90
2023/04/05 07:56:57;;;;;;;3.17;1.40;;;2.30;99.90;;;;;;4997523;28;20261;-89
2023/04/05 07:59:29;;;;;;;2.77;1.60;;;2.20;99.90;;;;;;4992589;28;20205;-90
2023/04/05 08:02:00;;;;;;;2.27;1.57;;;2.20;99.90;;;;;;4998972;28;20210;-90
2023/04/05 08:04:44;;;;;;;4.13;1.60;;;2.20;99.90;;;;;;4997792;28;20206;-90
2023/04/05 08:07:17;;;;;;;1.77;1.40;;;2.10;99.90;;;;;;4990936;28;20306;-89
2023/04/05 08:09:49;;;;;;;2.93;1.60;;;2.10;99.90;;;;;;4978448;28;20203;-89
2023/04/05 08:12:20;;;;;;;3.77;1.33;;;2.10;99.90;;;;;;4995401;28;20207;-90
2023/04/05 08:14:52;;;;;;;1.40;1.20;;;2.10;99.90;;;;;;4997297;28;20214;-91
2023/04/05 08:17:25;;;;;;;3.60;1.37;;;2.10;99.90;;;;;;4996765;28;20211;-90
2023/04/05 08:19:57;;;;;;;3.57;1.70;;;2.10;99.90;;;;;;4996907;28;20218;-91
2023/04/05 08:22:32;;;;;;;1.53;1.33;;;2.00;99.90;;;;;;4988043;28;20211;-91
2023/04/05 08:25:04;;;;;;;2.20;1.27;;;2.00;99.90;;;;;;4997232;28;20230;-92
2023/04/05 08:27:36;;;;;;;4.07;1.70;;;2.00;99.90;;;;;;4997197;28;20276;-91
2023/04/05 08:30:09;;;;;;;2.20;1.47;;;2.00;99.90;;;;;;4985148;28;20211;-92
2023/04/05 08:32:40;;;;;;;3.50;1.43;;;2.00;99.90;;;;;;5008831;28;20206;-91
2023/04/05 08:35:12;;;;;;;2.23;1.33;;;2.00;99.90;;;;;;5004458;28;20313;-92
2023/04/05 08:37:47;;;;;;;3.43;1.53;;;2.00;99.90;;;;;;4997059;28;20655;-91
2023/04/05 08:40:19;;;;;;;3.73;1.77;;;2.00;99.90;;;;;;5001275;28;20233;-91
2023/04/05 08:42:59;;;;;;;1.73;1.33;;;1.90;99.90;;;;;;5018514;28;20206;-90
2023/04/05 08:45:35;;;;;;;1.93;1.30;;;1.90;99.90;;;;;;4984492;28;20226;-91
2023/04/05 08:48:06;;;;;;;2.83;1.47;;;1.90;99.90;;;;;;4979555;28;20301;-92
2023/04/05 08:50:38;;;;;;;3.40;1.70;;;1.80;99.90;;;;;;4977572;28;20273;-90
2023/04/05 08:53:13;;;;;;;3.73;1.70;;;1.80;99.90;;;;;;4997427;28;20210;-90
2023/04/05 08:55:44;;;;;;;2.27;1.43;;;1.80;99.90;;;;;;5010401;28;20260;-90
2023/04/05 08:58:17;;;;;;;2.77;1.20;;;1.80;99.90;;;;;;4987872;28;20530;-90
2023/04/05 09:00:49;;;;;;;2.17;1.40;;;1.80;99.90;;;;;;4997457;28;20213;-90
2023/04/05 09:03:24;;;;;;;3.87;1.63;;;1.70;99.90;;;;;;4996990;28;20293;-90
2023/04/05 09:05:56;;;;;;;2.43;1.67;;;1.70;99.90;;;;;;4997249;28;20234;-90
2023/04/05 09:08:31;;;;;;;3.57;1.63;;;1.70;99.90;;;;;;4992222;28;20652;-90
2023/04/05 09:11:04;;;;;;;3.63;1.10;;;1.70;99.90;;;;;;4996811;28;20272;-89
2023/04/05 09:13:35;;;;;;;2.07;1.70;;;1.80;99.90;;;;;;5016496;28;20622;-90
2023/04/05 09:16:08;;;;;;;3.67;1.70;;;1.70;99.90;;;;;;5017035;28;20209;-90
2023/04/05 09:18:39;;;;;;;2.43;1.33;;;1.70;99.90;;;;;;5009445;28;20276;-90
2023/04/05 09:21:14;;;;;;;2.67;1.73;;;1.70;99.90;;;;;;5001945;28;20270;-91
2023/04/05 09:23:57;;;;;;;4.60;1.50;;;1.70;99.90;;;;;;5003356;28;20242;-91
2023/04/05 09:26:29;;;;;;;4.23;1.70;;;1.70;99.90;;;;;;4996797;28;20245;-91
2023/04/05 09:29:02;;;;;;;2.93;1.40;;;1.60;99.90;;;;;;4996836;28;20226;-91
2023/04/05 09:31:35;;;;;;;5.57;1.80;;;1.60;99.90;;;;;;5005934;28;20210;-92
2023/04/05 09:34:07;;;;;;;4.27;1.83;;;1.70;99.90;;;;;;5006828;28;20285;-91
2023/04/05 09:36:46;;;;;;;1.97;1.40;;;1.60;99.90;;;;;;4998867;28;20242;-90
2023/04/05 09:39:22;;;;;;;3.70;1.50;;;1.60;99.90;;;;;;4995441;28;20226;-90
2023/04/05 09:42:10;;;;;;;1.97;1.40;;;1.60;99.90;;;;;;5004705;28;20205;-91
2023/04/05 09:44:56;;;;;;;3.33;1.33;;;1.60;99.90;;;;;;5016484;28;20666;-91
2023/04/05 09:47:30;;;;;;;1.90;1.37;;;1.60;99.90;;;;;;5006690;28;20296;-92
2023/04/05 09:50:04;;;;;;;3.40;1.60;;;1.50;99.90;;;;;;4996718;28;20273;-91
2023/04/05 09:52:37;;;;;;;2.60;1.50;;;1.60;99.90;;;;;;5017525;28;20548;-90
2023/04/05 09:55:12;;;;;;;2.40;1.47;;;1.50;99.90;;;;;;5015877;28;20228;-90
2023/04/05 09:57:44;;;;;;;1.80;1.43;;;1.50;99.90;;;;;;5013884;28;20213;-91
2023/04/05 10:00:21;;;;;;;2.93;1.47;;;1.50;99.90;;;;;;4977014;28;20207;-89
2023/04/05 10:02:57;;;;;;;1.67;1.40;;;1.50;99.90;;;;;;4976773;28;20218;-90
2023/04/05 10:05:31;;;;;;;1.30;1.20;;;1.50;99.90;;;;;;4992283;28;20204;-89
2023/04/05 10:08:05;;;;;;;1.87;1.33;;;1.50;99.90;;;;;;4994914;28;20195;-90
2023/04/05 10:10:48;;;;;;;4.17;1.60;;;1.50;99.90;;;;;;4999359;28;20202;-90
2023/04/05 10:13:20;;;;;;;2.23;1.43;;;1.50;99.90;;;;;;5004080;28;20214;-90
2023/04/05 10:15:55;;;;;;;2.17;1.70;;;1.50;99.90;;;;;;4995850;28;20257;-90
2023/04/05 10:18:38;;;;;;;4.10;1.77;;;1.50;99.90;;;;;;4995777;28;20214;-90
2023/04/05 10:21:15;;;;;;;2.73;1.70;;;1.50;99.90;;;;;;5003534;28;20256;-90
2023/04/05 10:23:48;;;;;;;5.20;1.77;;;1.50;99.90;;;;;;4976162;28;20206;-91
2023/04/05 10:26:34;;;;;;;3.57;1.60;;;1.50;99.90;;;;;;4976355;28;20587;-91
2023/04/05 10:29:14;;;;;;;4.73;1.90;;;1.50;99.90;;;;;;4991151;28;20210;-90
2023/04/05 10:31:52;;;;;;;3.27;1.87;;;1.50;99.90;;;;;;4979478;28;20660;-90
2023/04/05 10:34:37;;;;;;;3.17;1.90;;;1.50;99.90;;;;;;4983184;28;20245;-90
2023/04/05 10:37:13;;;;;;;5.37;1.70;;;1.50;99.90;;;;;;4988668;28;20575;-91
2023/04/05 10:39:48;;;;;;;2.70;1.77;;;1.50;99.90;;;;;;4975848;28;20213;-91
2023/04/05 10:42:27;;;;;;;3.53;1.83;;;1.50;99.90;;;;;;5011133;28;20201;-90
2023/04/05 10:45:03;;;;;;;3.10;1.93;;;1.70;99.90;;;;;;4976182;28;20250;-90
2023/04/05 10:47:42;;;;;;;2.33;1.80;;;1.80;99.90;;;;;;4975438;28;20329;-89
2023/04/05 10:50:21;;;;;;;5.60;2.07;;;1.90;99.90;;;;;;4985858;28;20260;-90
2023/04/05 10:52:53;;;;;;;4.13;1.67;;;1.90;99.90;;;;;;4995164;28;20663;-91
2023/04/05 10:55:26;;;;;;;4.70;1.90;;;2.00;99.90;;;;;;4984180;28;20203;-90
2023/04/05 10:58:00;;;;;;;3.63;1.70;;;2.00;99.90;;;;;;4986453;28;20202;-90
2023/04/05 11:00:32;;;;;;;3.87;1.77;;;2.00;99.90;;;;;;4994220;28;20210;-89
2023/04/05 11:03:03;;;;;;;2.33;1.70;;;2.10;99.90;;;;;;4992414;28;20210;-90
2023/04/05 11:05:36;;;;;;;2.27;1.50;;;2.10;99.90;;;;;;4974716;28;20203;-90
2023/04/05 11:08:09;;;;;;;2.63;1.70;;;2.10;99.90;;;;;;4973919;28;20246;-89
2023/04/05 11:10:42;;;;;;;2.63;1.53;;;2.10;99.90;;;;;;4981817;28;20198;-89
2023/04/05 11:13:16;;;;;;;1.90;1.50;;;2.10;99.90;;;;;;4993021;28;20272;-90
2023/04/05 11:15:48;;;;;;;2.83;1.63;;;2.00;99.90;;;;;;4995315;28;20272;-89
2023/04/05 11:18:23;;;;;;;2.90;1.53;;;2.00;99.90;;;;;;4994386;28;20226;-89
2023/04/05 11:21:06;;;;;;;2.33;1.60;;;2.00;99.90;;;;;;5000393;28;20261;-90
2023/04/05 11:24:07;;;;;;;2.43;1.50;;;2.00;99.90;;;;;;5015060;28;20685;-89
2023/04/05 11:26:58;;;;;;;2.57;1.20;;;2.00;99.90;;;;;;4988933;28;20248;-89
2023/04/05 11:29:53;;;;;;;3.27;1.50;;;1.90;99.90;;;;;;4986799;28;20207;-89
2023/04/05 11:32:26;;;;;;;2.97;1.70;;;1.90;99.90;;;;;;4989962;28;20238;-89
2023/04/05 11:35:01;;;;;;;2.90;1.37;;;1.90;99.90;;;;;;4994481;28;20221;-90
2023/04/05 11:38:07;;;;;;;3.47;1.40;;;1.90;99.90;;;;;;5007642;28;20202;-91
2023/04/05 11:40:42;;;;;;;2.70;1.37;;;1.90;99.90;;;;;;5016510;28;20228;-91
2023/04/05 11:43:14;;;;;;;3.77;1.60;;;1.80;99.90;;;;;;5013017;28;20206;-91
2023/04/05 11:45:49;;;;;;;2.47;1.50;;;1.70;99.90;;;;;;4991981;28;20651;-91
2023/04/05 11:48:23;;;;;;;2.00;1.50;;;1.70;99.90;;;;;;4993775;28;20237;-92
2023/04/05 11:50:57;;;;;;;2.10;1.57;;;1.70;99.90;;;;;;4993999;28;20693;-91
2023/04/05 11:53:28;;;;;;;3.53;1.57;;;1.60;99.90;;;;;;4995076;28;20679;-92
2023/04/05 11:56:11;;;;;;;2.87;1.50;;;1.60;99.90;;;;;;4995151;28;20206;-91
2023/04/05 11:58:43;;;;;;;5.43;1.50;;;1.50;99.90;;;;;;4975246;28;20266;-90
2023/04/05 12:01:19;;;;;;;2.30;1.57;;;1.50;99.90;;;;;;4976452;28;20214;-90
2023/04/05 12:03:55;;;;;;;2.93;1.80;;;1.50;99.90;;;;;;4993135;28;20210;-88
2023/04/05 12:06:28;;;;;;;4.67;1.70;;;1.50;99.90;;;;;;4998365;28;20214;-89
2023/04/05 12:09:00;;;;;;;2.13;1.40;;;1.60;99.90;;;;;;4991726;28;20218;-89
2023/04/05 12:11:32;;;;;;;2.73;1.50;;;1.60;99.90;;;;;;4977530;28;20214;-89
2023/04/05 12:14:04;;;;;;;2.50;1.40;;;1.70;99.90;;;;;;4991437;28;20214;-89
2023/04/05 12:16:37;;;;;;;2.47;1.60;;;1.70;99.90;;;;;;4994660;28;20547;-89
2023/04/05 12:19:10;;;;;;;1.97;1.47;;;1.80;99.90;;;;;;4996004;28;20221;-89
2023/04/05 12:21:42;;;;;;;2.83;1.70;;;1.80;99.90;;;;;;4978677;28;20203;-89
2023/04/05 12:24:14;;;;;;;4.67;1.90;;;1.90;99.90;;;;;;4985563;28;20687;-90
2023/04/05 12:26:46;;;;;;;1.63;1.50;;;1.90;99.90;;;;;;4986650;28;20293;-89
2023/04/05 12:29:17;;;;;;;2.23;1.33;;;2.00;99.90;;;;;;4977324;28;20207;-90
2023/04/05 12:31:52;;;;;;;3.00;1.50;;;2.10;99.90;;;;;;4978207;28;20277;-89
2023/04/05 12:34:26;;;;;;;2.43;1.40;;;2.00;99.90;;;;;;4981095;28;20232;-90
2023/04/05 12:37:02;;;;;;;1.87;1.23;;;2.00;99.90;;;;;;4997449;28;20198;-90
2023/04/05 12:39:34;;;;;;;2.60;1.27;;;2.00;99.90;;;;;;4995656;28;20206;-89
2023/04/05 12:42:06;;;;;;;2.20;1.40;;;2.00;99.90;;;;;;4998019;28;20289;-89
2023/04/05 12:44:38;;;;;;;1.87;1.50;;;2.00;99.90;;;;;;4997310;28;20663;-90
2023/04/05 12:47:14;;;;;;;1.80;1.20;;;2.00;99.90;;;;;;4994103;28;20211;-89
2023/04/05 12:49:46;;;;;;;1.97;1.40;;;2.10;99.90;;;;;;4997685;28;20198;-90
2023/04/05 12:52:21;;;;;;;2.33;1.67;;;2.00;99.90;;;;;;4997010;28;20233;-90
2023/04/05 12:54:56;;;;;;;2.17;1.47;;;2.10;99.90;;;;;;4994044;28;20217;-89
2023/04/05 12:57:33;;;;;;;1.83;1.40;;;2.10;99.90;;;;;;4989052;28;20240;-89
2023/04/05 13:00:05;;;;;;;2.30;1.60;;;2.10;99.90;;;;;;4999612;28;20220;-88
2023/04/05 13:02:39;;;;;;;1.70;1.23;;;2.10;99.90;;;;;;4994488;28;20191;-90
2023/04/05 13:05:11;;;;;;;1.47;1.30;;;2.20;99.90;;;;;;5011858;28;20278;-91
2023/04/05 13:07:43;;;;;;;4.03;1.60;;;2.30;99.90;;;;;;5012870;28;20285;-90
2023/04/05 13:10:16;;;;;;;1.70;1.60;;;2.30;99.90;;;;;;5003810;28;20206;-89
2023/04/05 13:12:47;;;;;;;2.27;1.17;;;2.30;99.90;;;;;;4986268;28;20325;-89
2023/04/05 13:15:20;;;;;;;1.47;1.27;;;2.30;99.90;;;;;;4988959;28;20234;-89
2023/04/05 13:17:54;;;;;;;4.00;1.70;;;2.30;99.90;;;;;;4995999;28;20226;-88
2023/04/05 13:20:26;;;;;;;2.80;1.80;;;2.30;99.90;;;;;;4997388;28;20285;-89
2023/04/05 13:22:57;;;;;;;5.50;1.57;;;2.40;99.90;;;;;;4996797;28;20293;-88
2023/04/05 13:25:30;;;;;;;4.17;1.47;;;2.40;99.90;;;;;;4996346;28;20218;-88
2023/04/05 13:28:01;;;;;;;4.03;1.60;;;2.40;99.90;;;;;;4998898;28;20709;-87
2023/04/05 13:30:34;;;;;;;2.13;1.17;;;2.40;99.90;;;;;;4990899;28;20285;-87